Sagehen Creek Weather observations

Data are for observation ending at time listed.
 Day   Time    Ave.   Ave.  Ave.  Vector   Max.   Stn.    Total    Solar   Ave.  
  of    of     Air    Rel.  Wind   Wind    Wind   Baro.  Precip.   Rad.    Soil  
Year   Day     Temp.  Hum.  Speed  Dir.    Gust   Pres.                    Temp. 
2016   (PST)    F      %     mph   deg.    mph     mb.     in.     W/m2     F   
------------------------------------------------------------------------------
 209    6:10   39.7    60    0.1   263      0.6   839.6    3.06     162    999.0
 209    6:20   41.4    56    0.0   257      0.9   839.7    3.06     192    999.0
 209    6:30   43.5    60    0.3   265      1.0   839.8    3.06     221    999.0
 209    6:40   45.4    56    0.1   239      0.7   840.0    3.06     253    999.0
 209    6:50   47.0    56    0.0   242      0.3   840.0    3.06     287    999.0
 209    7:00   50.0    54    0.0     0      0.0   840.0    3.06     322    999.0
 209    7:10   52.4    55    0.0     0      0.0   840.0    3.06     355    999.0
 209    7:20   55.3    54    0.0     0      0.0   839.9    3.06     391    999.0
 209    7:30   59.6    52    0.2    82      0.9   839.8    3.06     424    999.0
 209    7:40   64.2    43    0.1   116      0.5   840.2    3.06     458    999.0
 209    7:50   65.6    38    1.3   105      3.9   839.9    3.06     490    999.0
 209    8:00   65.4    33    2.6   101      4.7   839.7    3.06     521    999.0
 209    8:10   66.4    29    3.3    98      4.7   840.2    3.06     553    999.0
 209    8:20   68.0    27    3.3    96      4.4   840.0    3.06     583    999.0
 209    8:30   69.9    27    2.5   102      4.1   839.9    3.06     614    999.0
 209    8:40   71.6    28    2.6   100      4.9   840.0    3.06     644    999.0
 209    8:50   72.8    29    3.2   104      5.5   839.9    3.06     673    999.0
 209    9:00   74.0    28    3.4    97      5.2   839.9    3.06     701    999.0
 209    9:10   75.3    28    3.2    85      6.7   840.0    3.06     729    999.0
 209    9:20   77.6    25    3.0    82      6.5   840.1    3.06     755    999.0
 209    9:30   78.8    22    3.5    89      6.1   840.1    3.06     781    999.0
 209    9:40   80.6    17    2.6   100      6.1   839.6    3.06     804    999.0
 209    9:50   83.0    14    2.3    97      5.5   839.8    3.06     828    999.0
 209   10:00   84.5    14    2.0   130      5.2   839.9    3.06     847    999.0
 209   10:10   85.8    14    2.2   152      4.7   839.4    3.06     866    999.0
 209   10:20   86.2    14    2.3   184      6.0   839.6    3.05     881    999.0
 209   10:30   86.5    12    1.7   178      4.0   839.7    3.06     897    999.0
 209   10:40   87.3    13    1.6   163      5.0   839.8    3.05     910    999.0
 209   10:50   87.2    13    1.8   211      3.3   839.6    3.05     924    999.0
 209   11:00   87.3    13    2.1   240      4.2   839.5    3.05     938    999.0
 209   11:10   87.2    11    2.3   170      6.6   839.5    3.05     952    999.0
 209   11:20   88.0    10    3.0   134      7.1   839.4    3.05     956    999.0
 209   11:30   87.9     9    2.9   157      8.3   839.4    3.05     937    999.0
 209   11:40   88.6    12    2.9   226      7.0   839.4    3.05     976    999.0
 209   11:50   88.8    10    1.8   138      4.5   839.4    3.05     981    999.0
 209   12:00   88.8    10    2.2   270      6.9   839.4    3.05     984    999.0
 209   12:10   88.8    11    2.7   226      5.4   839.7    3.05     985    999.0
 209   12:20   88.8    10    2.6   265      9.4   839.5    3.05     984    999.0
 209   12:30   88.9    11    2.4   199      5.5   839.4    3.05     982    999.0
 209   12:40   88.9    11    2.3   257      5.8   839.2    3.05     979    999.0
 209   12:50   89.5    10    1.7   228      5.6   839.5    3.05     973    999.0
 209   13:00   89.2    11    2.6   237      5.7   839.7    3.05     963    999.0
 209   13:10   89.5    12    1.8   239      5.0   839.5    3.05     954    999.0
 209   13:20   90.5    12    2.3   272      9.2   839.3    3.05     944    999.0
 209   13:30   89.5    12    3.1   272      8.7   839.1    3.05     930    999.0
 209   13:40   89.8    13    2.3   262      6.0   839.5    3.05     917    999.0
 209   13:50   90.2    13    2.4   283      6.8   839.3    3.05     904    999.0
 209   14:00   90.0    13    1.9   249      4.5   839.0    3.05     890    999.0
 209   14:10   89.4    13    2.3   248      6.7   839.5    3.05     874    999.0
 209   14:20   89.2    13    2.4   256      6.2   839.2    3.05     857    999.0
 209   14:30   89.2    13    2.4   266      5.5   839.0    3.05     839    999.0
 209   14:40   89.2    13    2.4   245      5.4   839.5    3.05     818    999.0
 209   14:50   89.7    12    2.1   280      5.8   839.5    3.05     795    999.0
 209   15:00   89.2    12    2.3   270      5.3   839.4    3.05     769    999.0
 209   15:10   88.6    13    2.5   217      6.2   839.4    3.05     744    999.0
 209   15:20   88.6    13    2.2   184      6.2   839.3    3.05     717    999.0
 209   15:30   88.2    15    1.8   226      4.6   839.1    3.05     686    999.0
 209   15:40   88.0    14    2.3   225      5.3   839.0    3.05     659    999.0
 209   15:50   88.0    14    1.9   224      9.0   839.2    3.05     631    999.0
 209   16:00   87.4    14    2.3   273      5.5   839.4    3.05     602    999.0
 209   16:10   87.0    14    2.2   230      5.3   839.2    3.05     571    999.0
 209   16:20   87.2    14    2.1   258      7.5   839.1    3.05     538    999.0
 209   16:30   86.4    15    2.1   252      5.6   839.1    3.06     504    999.0
 209   16:40   86.2    15    2.1   242      6.2   838.9    3.06     473    999.0
 209   16:50   85.6    16    2.1   252      6.6   839.2    3.06     439    999.0
 209   17:00   85.6    15    1.6   242      6.2   839.4    3.06     404    999.0
 209   17:10   85.2    17    1.4   229      6.1   839.2    3.06     372    999.0
 209   17:20   83.7    18    1.6   242      4.4   839.0    3.06     324    999.0
 209   17:30   82.3    19    1.7   226      4.6   838.9    3.06      76    999.0
 209   17:40   81.1    21    1.6   237      5.6   839.2    3.06      62    999.0
 209   17:50   79.9    22    0.8   256      2.6   839.1    3.06      32    999.0
 209   18:00   79.3    22    1.6   229      4.7   839.1    3.06      24    999.0
 209   18:10   78.3    24    0.5   176      1.7   838.8    3.06      21    999.0
 209   18:20   76.9    26    0.1   349      1.1   839.0    3.06      18    999.0
 209   18:30   75.7    29    0.1   284      0.9   839.2    3.06      16    999.0
 209   18:40   73.8    32    0.1   268      0.9   839.3    3.06      14    999.0
 209   18:50   71.9    35    0.0   256      0.5   839.2    3.06      11    999.0
 209   19:00   70.2    39    0.0     0      0.0   839.2    3.06       8    999.0
 209   19:10   68.7    43    0.1   259      1.2   839.5    3.06       6    999.0
 209   19:20   67.5    44    0.4   264      1.4   839.4    3.06       3    999.0
 209   19:30   66.4    47    0.3   247      1.5   839.3    3.06       1    999.0
 209   19:40   64.9    48    0.1   240      0.5   839.6    3.06       0    999.0
 209   19:50   64.0    48    0.5   241      1.2   839.6    3.06       0    999.0
 209   20:00   62.9    48    0.2   262      0.8   839.5    3.06       0    999.0
 209   20:10   62.0    47    0.7   258      1.7   839.8    3.06       0    999.0
 209   20:20   61.2    48    0.7   212      2.1   839.9    3.06       0    999.0
 209   20:30   60.3    48    0.5   257      1.2   840.0    3.06       0    999.0
 209   20:40   59.9    47    0.7   240      1.8   839.9    3.06       0    999.0
 209   20:50   59.0    49    0.2   215      0.9   839.8    3.06       0    999.0
 209   21:00   58.3    50    0.6   242      1.1   839.8    3.06       0    999.0
 209   21:10   57.7    52    0.2   241      0.8   839.8    3.06       0    999.0
 209   21:20   57.1    53    0.4   239      0.9   839.9    3.06       0    999.0
 209   21:30   56.5    54    0.3   259      1.3   840.1    3.06       0    999.0
 209   21:40   56.0    55    0.3   255      1.1   840.1    3.06       0    999.0
 209   21:50   55.5    56    0.8   250      1.4   840.1    3.06       0    999.0
 209   22:00   54.9    56    0.7   256      1.2   840.2    3.06       0    999.0
 209   22:10   54.8    55    0.7   250      1.3   840.1    3.06       0    999.0
 209   22:20   54.4    56    0.5   265      1.2   840.0    3.06       0    999.0
 209   22:30   54.1    55    0.6   264      1.1   839.9    3.06       0    999.0
 209   22:40   53.6    57    0.3   150      1.3   839.8    3.06       0    999.0
 209   22:50   53.0    59    0.5   274      1.0   840.0    3.06       0    999.0
 209   23:00   52.8    61    0.1   253      0.7   840.3    3.06       0    999.0
 209   23:10   52.1    60    0.3   248      1.0   840.4    3.06       0    999.0
 209   23:20   51.9    61    0.2   253      1.1   840.1    3.06       0    999.0
 209   23:30   51.7    60    0.8   264      1.2   839.9    3.06       0    999.0
 209   23:40   51.6    61    0.6   258      1.4   840.1    3.06       0    999.0
 209   23:50   51.3    61    0.5   256      1.3   840.2    3.06       0    999.0
 210    0:00   51.0    62    0.6   255      1.2   840.2    3.06       0    999.0
 210    0:10   50.6    64    0.7   265      1.1   839.7    3.06       0    999.0
 210    0:20   50.5    62    0.8   269      1.0   839.8    3.06       0    999.0
 210    0:30   50.5    62    0.9   261      1.3   839.9    3.06       0    999.0
 210    0:40   50.1    63    0.5   254      0.9   839.6    3.06       0    999.0
 210    0:50   49.7    64    0.8   262      1.2   839.7    3.06       0    999.0
 210    1:00   49.5    64    0.9   255      1.8   839.7    3.06       0    999.0
 210    1:10   49.2    66    0.5   266      1.0   840.1    3.06       0    999.0
 210    1:20   49.1    65    0.9   264      1.2   840.0    3.06       0    999.0
 210    1:30   49.0    66    0.9   255      1.2   840.0    3.06       0    999.0
 210    1:40   48.8    66    0.6   262      1.2   839.8    3.06       0    999.0
 210    1:50   48.5    67    0.6   261      1.0   839.9    3.06       0    999.0
 210    2:00   48.3    67    0.7   262      1.3   840.0    3.06       0    999.0
 210    2:10   48.1    67    0.5   262      1.0   840.0    3.06       0    999.0
 210    2:20   47.8    68    0.1   256      0.6   840.0    3.06       0    999.0
 210    2:30   47.7    68    0.7   260      1.0   840.1    3.06       0    999.0
 210    2:40   47.4    70    0.3   256      0.9   840.1    3.06       0    999.0
 210    2:50   47.2    70    0.8   259      1.1   840.0    3.06       0    999.0
 210    3:00   46.9    70    0.6   260      1.1   839.8    3.06       0    999.0
 210    3:10   46.8    70    0.8   265      1.3   840.0    3.06       0    999.0
 210    3:20   46.8    71    0.9   261      1.4   840.0    3.06       0    999.0
 210    3:30   46.4    72    0.4   256      0.9   840.0    3.06       0    999.0
 210    3:40   46.3    72    0.7   263      1.1   839.8    3.06       0    999.0
 210    3:50   46.2    72    0.9   261      1.3   839.8    3.06       0    999.0
 210    4:00   45.9    73    0.2   256      0.7   839.8    3.06       0    999.0
 210    4:10   45.7    73    0.7   259      1.0   839.5    3.06       0    999.0
 210    4:20   45.6    74    0.4   258      0.9   839.7    3.06       0    999.0
 210    4:30   45.5    74    0.6   259      0.9   839.8    3.06       0    999.0
 210    4:40   45.4    74    0.7   258      1.2   839.8    3.06       0    999.0
 210    4:50   45.1    76    0.4   257      0.9   839.9    3.06       1    999.0
 210    5:00   45.2    75    1.0   261      1.3   839.9    3.06       2    999.0
 210    5:10   45.1    75    0.7   254      1.1   840.0    3.06       5    999.0
 210    5:20   44.9    76    0.8   257      1.2   840.0    3.06      10    999.0
 210    5:30   45.0    76    0.9   265      1.2   840.0    3.06      15    999.0
 210    5:40   45.4    76    0.9   277      1.4   840.1    3.06      38    999.0
 210    5:50   46.1    75    0.1   274      0.9   840.1    3.06      76    999.0
 210    6:00   47.2    75    0.3   268      1.4   840.1    3.06     118    999.0

Return to Sagehen Creek graphs page.


Western Regional Climate Center,wrcc@dri.edu